Time;durP1;ratioP1;P1;durP2;ratioP2;P2;SDS_P1;SDS_P2;PMS_P1;PMS_P2;Temp;Humidity;BMP_temperature;BMP_pressure;BME280_temperature;BME280_humidity;BME280_pressure;Samples;Min_cycle;Max_cycle;Signal;HPM_P1;HPM_P2
2023/05/31 00:00:14;;;;;;;15.63;5.82;;;13.60;68.80;;;;;;4753454;30;20052;-93
2023/05/31 00:02:41;;;;;;;18.57;5.60;;;13.60;68.60;;;;;;4738611;30;20052;-92
2023/05/31 00:05:11;;;;;;;12.95;5.65;;;13.50;68.70;;;;;;4738665;30;20061;-93
2023/05/31 00:07:38;;;;;;;18.60;5.68;;;13.50;68.60;;;;;;4738947;30;20113;-92
2023/05/31 00:10:06;;;;;;;15.00;5.60;;;13.50;68.70;;;;;;4753303;30;20082;-91
2023/05/31 00:12:33;;;;;;;14.93;5.40;;;13.50;68.70;;;;;;4739021;30;20087;-92
2023/05/31 00:15:00;;;;;;;14.10;5.33;;;13.30;68.80;;;;;;4753410;30;20056;-92
2023/05/31 00:17:28;;;;;;;16.27;6.20;;;13.30;69.00;;;;;;4738862;30;20095;-92
2023/05/31 00:19:58;;;;;;;18.15;6.07;;;13.30;69.10;;;;;;4753805;30;20139;-93
2023/05/31 00:22:25;;;;;;;19.98;6.10;;;13.30;69.10;;;;;;4753562;30;20146;-92
2023/05/31 00:24:52;;;;;;;12.55;5.30;;;13.10;69.60;;;;;;4753385;30;20091;-92
2023/05/31 00:27:20;;;;;;;12.03;4.80;;;13.00;69.80;;;;;;4753441;30;20048;-92
2023/05/31 00:29:47;;;;;;;12.45;5.60;;;13.00;69.80;;;;;;4738762;30;20060;-92
2023/05/31 00:32:14;;;;;;;13.82;5.30;;;13.00;69.70;;;;;;4752987;30;20393;-90
2023/05/31 00:34:41;;;;;;;11.43;5.05;;;13.00;69.40;;;;;;4753154;30;20110;-90
2023/05/31 00:37:08;;;;;;;11.57;5.22;;;13.00;69.50;;;;;;4738596;30;20135;-93
2023/05/31 00:39:35;;;;;;;15.23;5.43;;;12.80;69.70;;;;;;4753536;30;20056;-93
2023/05/31 00:42:02;;;;;;;14.95;5.15;;;12.70;70.10;;;;;;4738683;30;20055;-93
2023/05/31 00:44:29;;;;;;;14.38;5.35;;;12.70;70.40;;;;;;4753252;30;20078;-93
2023/05/31 00:46:57;;;;;;;15.15;5.25;;;12.70;70.20;;;;;;4738823;30;20072;-94
2023/05/31 00:49:26;;;;;;;12.90;5.50;;;12.80;70.10;;;;;;4753307;30;20058;-92
2023/05/31 00:51:54;;;;;;;13.13;4.90;;;12.80;70.10;;;;;;4738728;30;20056;-93
2023/05/31 00:54:22;;;;;;;13.95;5.00;;;12.80;70.20;;;;;;4738647;30;20090;-93
2023/05/31 00:56:49;;;;;;;11.32;5.28;;;12.80;70.00;;;;;;4739348;30;20545;-93
2023/05/31 00:59:16;;;;;;;12.88;4.72;;;12.80;69.90;;;;;;4738568;30;20060;-92
2023/05/31 01:01:44;;;;;;;10.25;4.80;;;12.80;69.80;;;;;;4753340;30;20056;-93
2023/05/31 01:04:15;;;;;;;13.60;5.27;;;12.70;69.90;;;;;;4738423;30;20110;-93
2023/05/31 01:06:42;;;;;;;13.73;5.22;;;12.60;70.00;;;;;;4738510;30;20056;-93
2023/05/31 01:09:10;;;;;;;13.05;4.80;;;12.60;70.40;;;;;;4752723;30;20150;-92
2023/05/31 01:11:50;;;;;;;11.27;4.85;;;12.50;70.50;;;;;;4752685;30;20053;-92
2023/05/31 01:14:45;;;;;;;15.93;5.57;;;12.50;70.50;;;;;;4722898;30;20060;-93
2023/05/31 01:17:23;;;;;;;11.53;4.70;;;12.50;70.50;;;;;;4738290;30;20064;-93
2023/05/31 01:19:55;;;;;;;8.85;4.38;;;12.50;70.40;;;;;;4737920;30;20064;-93
2023/05/31 01:22:57;;;;;;;10.35;4.50;;;12.50;70.50;;;;;;4738179;30;20056;-92
2023/05/31 01:25:51;;;;;;;13.48;5.22;;;12.50;70.40;;;;;;4710907;30;20180;-93
2023/05/31 01:28:19;;;;;;;12.85;5.20;;;12.40;70.30;;;;;;4737866;30;20580;-93
2023/05/31 01:30:49;;;;;;;14.53;5.40;;;12.30;70.90;;;;;;4738117;30;20542;-92
2023/05/31 01:33:17;;;;;;;12.88;5.38;;;12.10;71.20;;;;;;4738003;30;20048;-92
2023/05/31 01:35:45;;;;;;;10.95;5.45;;;12.00;71.30;;;;;;4737959;30;20117;-92
2023/05/31 01:38:12;;;;;;;13.18;4.72;;;12.00;71.60;;;;;;4737518;30;20056;-92
2023/05/31 01:40:40;;;;;;;11.63;5.07;;;11.90;71.60;;;;;;4740170;30;20086;-92
2023/05/31 01:43:18;;;;;;;11.97;4.87;;;11.70;71.20;;;;;;4743071;30;20059;-93
2023/05/31 01:45:45;;;;;;;15.25;5.88;;;11.70;71.30;;;;;;4742241;30;20048;-92
2023/05/31 01:48:13;;;;;;;12.48;5.70;;;11.80;71.40;;;;;;4740993;30;20048;-93
2023/05/31 01:50:42;;;;;;;10.50;4.53;;;11.80;71.30;;;;;;4757373;30;20056;-92
2023/05/31 01:53:10;;;;;;;11.75;4.80;;;11.70;71.70;;;;;;4739803;30;20052;-93
2023/05/31 01:55:42;;;;;;;12.10;4.50;;;11.70;71.70;;;;;;4737902;30;20109;-93
2023/05/31 01:58:11;;;;;;;11.02;4.40;;;11.70;71.60;;;;;;4752183;30;20121;-92
2023/05/31 02:00:38;;;;;;;11.45;4.10;;;11.70;71.30;;;;;;4737755;30;20052;-92
2023/05/31 02:03:05;;;;;;;9.68;4.35;;;11.80;71.00;;;;;;4737300;30;20087;-92
2023/05/31 02:05:33;;;;;;;10.18;3.88;;;11.90;71.10;;;;;;4752032;30;20563;-92
2023/05/31 02:08:03;;;;;;;9.07;4.17;;;11.90;70.30;;;;;;4737116;30;20052;-93
2023/05/31 02:10:30;;;;;;;9.63;3.92;;;11.90;70.70;;;;;;4751762;30;20052;-92
2023/05/31 02:12:58;;;;;;;11.60;4.50;;;11.90;70.30;;;;;;4737321;30;20416;-93
2023/05/31 02:15:25;;;;;;;11.77;4.63;;;11.90;70.60;;;;;;4737287;30;20052;-93
2023/05/31 02:17:56;;;;;;;10.73;4.15;;;11.90;70.90;;;;;;4737219;30;20143;-92
2023/05/31 02:20:23;;;;;;;11.90;4.27;;;11.90;71.00;;;;;;4752114;30;20056;-92
2023/05/31 02:22:53;;;;;;;11.90;4.30;;;11.80;71.00;;;;;;4737211;30;20160;-92
2023/05/31 02:29:21;;;;;;;11.02;4.30;;;11.70;71.10;;;;;;4757064;30;20378;-92
2023/05/31 02:31:49;;;;;;;13.25;4.13;;;11.70;71.40;;;;;;4740500;30;20052;-93
2023/05/31 02:34:18;;;;;;;10.80;4.53;;;11.70;71.60;;;;;;4740526;30;20044;-93
2023/05/31 02:36:45;;;;;;;9.98;4.07;;;11.70;71.50;;;;;;4754989;30;20151;-92
2023/05/31 02:39:12;;;;;;;9.35;4.00;;;11.70;71.50;;;;;;4740304;30;20062;-91
2023/05/31 02:41:41;;;;;;;12.65;3.95;;;11.80;70.60;;;;;;4756232;30;20060;-93
2023/05/31 02:44:08;;;;;;;9.27;3.78;;;11.80;70.10;;;;;;4740159;30;20055;-92
2023/05/31 02:46:35;;;;;;;14.13;4.33;;;11.70;70.30;;;;;;4740079;30;20052;-93
2023/05/31 02:49:03;;;;;;;9.57;3.88;;;11.70;70.80;;;;;;4737260;30;20081;-92
2023/05/31 02:51:30;;;;;;;10.65;4.22;;;11.60;70.90;;;;;;4748231;30;20393;-92
2023/05/31 02:54:27;;;;;;;12.10;3.90;;;11.60;70.70;;;;;;4754844;30;20453;-92
2023/05/31 02:56:54;;;;;;;10.18;4.32;;;11.60;70.70;;;;;;4754731;30;20052;-92
2023/05/31 02:59:23;;;;;;;12.80;4.37;;;11.50;70.70;;;;;;4754746;30;20568;-93
2023/05/31 03:02:16;;;;;;;12.18;4.70;;;11.50;70.90;;;;;;4750437;30;20083;-93
2023/05/31 03:04:55;;;;;;;12.15;4.68;;;11.40;71.40;;;;;;4753041;30;20458;-93
2023/05/31 03:07:22;;;;;;;10.77;4.20;;;11.40;71.40;;;;;;4754356;30;20052;-92
2023/05/31 03:09:57;;;;;;;13.00;4.63;;;11.40;71.60;;;;;;4754702;30;20048;-92
2023/05/31 03:12:25;;;;;;;11.57;4.33;;;11.30;71.70;;;;;;4754282;30;20052;-92
2023/05/31 03:14:52;;;;;;;9.80;3.92;;;11.30;71.90;;;;;;4739805;30;20055;-92
2023/05/31 03:17:20;;;;;;;10.45;4.00;;;11.30;71.70;;;;;;4754283;30;20155;-92
2023/05/31 03:19:48;;;;;;;8.65;3.50;;;11.30;71.80;;;;;;4754184;30;20052;-92
2023/05/31 03:22:16;;;;;;;10.35;3.95;;;11.30;71.70;;;;;;4739675;30;20423;-92
2023/05/31 03:24:44;;;;;;;11.70;3.90;;;11.30;71.90;;;;;;4753811;30;20492;-92
2023/05/31 03:27:13;;;;;;;10.02;4.03;;;11.30;71.80;;;;;;4739521;30;20048;-92
2023/05/31 03:29:42;;;;;;;8.98;3.95;;;11.30;71.60;;;;;;4739435;30;20052;-92
2023/05/31 03:32:09;;;;;;;11.05;4.00;;;11.40;71.80;;;;;;4754188;30;20048;-92
2023/05/31 03:34:38;;;;;;;9.50;3.65;;;11.40;72.00;;;;;;4754224;30;20056;-91
2023/05/31 03:37:06;;;;;;;10.03;4.00;;;11.30;72.20;;;;;;4753080;30;20482;-91
2023/05/31 03:39:44;;;;;;;12.13;4.30;;;11.30;72.40;;;;;;4739215;30;20067;-92
2023/05/31 03:42:23;;;;;;;10.13;4.10;;;11.40;72.30;;;;;;4754693;30;20449;-93
2023/05/31 03:44:50;;;;;;;15.45;4.15;;;11.40;72.50;;;;;;4753745;30;20071;-92
2023/05/31 03:47:18;;;;;;;12.60;3.85;;;11.40;72.40;;;;;;4753971;30;20101;-92
2023/05/31 03:49:45;;;;;;;10.23;3.60;;;11.30;72.60;;;;;;4739265;30;20473;-92
2023/05/31 03:52:12;;;;;;;12.02;4.00;;;11.30;72.60;;;;;;4753805;30;20079;-92
2023/05/31 03:54:40;;;;;;;49.85;5.40;;;11.40;72.80;;;;;;4739436;30;20082;-92
2023/05/31 03:57:07;;;;;;;13.85;4.25;;;11.30;73.10;;;;;;4739110;30;20064;-92
2023/05/31 03:59:35;;;;;;;13.27;3.63;;;11.20;73.20;;;;;;4753754;30;20052;-92
2023/05/31 04:02:03;;;;;;;8.37;3.50;;;11.30;73.60;;;;;;4753760;30;20060;-92
2023/05/31 04:04:30;;;;;;;9.38;3.58;;;11.30;73.40;;;;;;4753593;30;20495;-92
2023/05/31 04:06:58;;;;;;;9.70;3.83;;;11.30;73.10;;;;;;4739052;30;20052;-93
2023/05/31 04:09:25;;;;;;;9.25;3.78;;;11.30;73.20;;;;;;4738972;30;20052;-93
2023/05/31 04:11:57;;;;;;;11.20;3.58;;;11.30;73.10;;;;;;4735707;30;20045;-90
2023/05/31 04:14:25;;;;;;;10.00;3.53;;;11.50;73.30;;;;;;4736634;30;20048;-89
2023/05/31 04:16:52;;;;;;;8.25;3.58;;;11.60;73.10;;;;;;4736579;30;20099;-89
2023/05/31 04:19:20;;;;;;;9.50;3.50;;;11.70;72.70;;;;;;4735565;30;20063;-89
2023/05/31 04:21:48;;;;;;;8.82;3.10;;;11.90;73.10;;;;;;4750691;30;20094;-89
2023/05/31 04:24:15;;;;;;;9.23;3.13;;;12.00;72.30;;;;;;4735495;30;20060;-90
2023/05/31 04:26:42;;;;;;;11.63;3.70;;;12.10;72.10;;;;;;4736397;30;20053;-90
2023/05/31 04:29:11;;;;;;;9.55;3.45;;;12.20;71.60;;;;;;4736498;30;20130;-89
2023/05/31 04:31:38;;;;;;;12.73;3.72;;;12.30;71.30;;;;;;4736415;30;20048;-89
2023/05/31 04:34:20;;;;;;;9.82;3.20;;;12.50;71.60;;;;;;4752048;30;20496;-88
2023/05/31 04:36:49;;;;;;;10.63;3.22;;;12.60;71.40;;;;;;4751489;30;20142;-89
2023/05/31 04:39:22;;;;;;;11.70;3.60;;;12.70;70.90;;;;;;4735691;30;20058;-89
2023/05/31 04:41:51;;;;;;;12.48;3.05;;;12.80;70.70;;;;;;4721816;30;20057;-88
2023/05/31 04:44:18;;;;;;;14.93;3.92;;;12.90;70.50;;;;;;4737388;30;20051;-89
2023/05/31 04:46:48;;;;;;;13.15;4.47;;;13.10;72.30;;;;;;4752098;30;20047;-89
2023/05/31 04:49:16;;;;;;;11.43;4.20;;;13.30;70.20;;;;;;4732448;30;20051;-89
2023/05/31 04:51:43;;;;;;;15.57;4.10;;;13.50;69.20;;;;;;4722856;30;20072;-88
2023/05/31 04:54:10;;;;;;;13.88;4.28;;;13.80;71.00;;;;;;4735728;30;20416;-89
2023/05/31 04:56:37;;;;;;;17.00;4.82;;;14.00;69.50;;;;;;4737339;30;20044;-90
2023/05/31 04:59:07;;;;;;;16.38;5.50;;;14.10;69.90;;;;;;4734753;30;20488;-89
2023/05/31 05:01:34;;;;;;;20.13;6.47;;;14.20;68.70;;;;;;4750218;30;20183;-90
2023/05/31 05:04:06;;;;;;;21.60;7.20;;;14.30;68.80;;;;;;4751817;30;20101;-88
2023/05/31 05:06:33;;;;;;;27.92;8.90;;;14.40;68.80;;;;;;4735914;30;20055;-88
2023/05/31 05:09:01;;;;;;;28.13;10.25;;;14.50;67.80;;;;;;4751348;30;20568;-88
2023/05/31 05:11:30;;;;;;;23.10;9.02;;;14.70;67.00;;;;;;4746337;30;20055;-88
2023/05/31 05:13:57;;;;;;;21.02;7.97;;;14.90;65.70;;;;;;4734704;30;20048;-88
2023/05/31 05:16:26;;;;;;;23.63;9.40;;;15.10;65.20;;;;;;4751739;30;20113;-91
2023/05/31 05:18:53;;;;;;;25.02;10.85;;;15.20;65.30;;;;;;4735314;30;20060;-89
2023/05/31 05:21:22;;;;;;;24.90;8.55;;;15.20;65.60;;;;;;4736399;30;20591;-89
2023/05/31 05:23:50;;;;;;;17.42;7.80;;;15.20;64.50;;;;;;4737259;30;20052;-89
2023/05/31 05:26:17;;;;;;;28.40;12.57;;;15.40;63.80;;;;;;4736845;30;20056;-89
2023/05/31 05:28:44;;;;;;;22.80;8.00;;;15.50;63.90;;;;;;4734276;30;20102;-86
2023/05/31 05:31:11;;;;;;;32.75;7.60;;;15.60;63.10;;;;;;4749481;30;20052;-90
2023/05/31 05:33:43;;;;;;;21.00;7.47;;;15.80;63.70;;;;;;4751118;30;20052;-91
2023/05/31 05:36:12;;;;;;;20.55;8.80;;;16.00;62.80;;;;;;4734516;30;20056;-89
2023/05/31 05:38:45;;;;;;;18.52;7.15;;;16.10;62.30;;;;;;4750810;30;20044;-90
2023/05/31 05:41:12;;;;;;;20.17;7.07;;;16.10;62.20;;;;;;4732205;30;20063;-89
2023/05/31 05:43:42;;;;;;;18.55;6.78;;;16.20;62.60;;;;;;4737024;30;20052;-89
2023/05/31 05:46:15;;;;;;;18.67;6.72;;;16.40;62.50;;;;;;4720224;30;20055;-87
2023/05/31 05:48:43;;;;;;;22.00;7.13;;;16.50;61.50;;;;;;4734619;30;20053;-86
2023/05/31 05:51:10;;;;;;;16.77;7.38;;;16.60;61.80;;;;;;4746026;30;20516;-86
2023/05/31 05:53:37;;;;;;;20.70;6.80;;;16.60;61.90;;;;;;4731153;30;20060;-87
2023/05/31 05:56:05;;;;;;;18.52;7.78;;;16.60;60.60;;;;;;4737315;30;20056;-87
2023/05/31 05:58:42;;;;;;;20.70;7.28;;;16.60;61.30;;;;;;4738767;30;20086;-88
2023/05/31 06:01:27;;;;;;;23.33;7.05;;;16.70;61.00;;;;;;4743394;30;20059;-87
2023/05/31 06:03:56;;;;;;;17.95;6.50;;;16.80;61.70;;;;;;4755373;30;20454;-87
2023/05/31 06:06:24;;;;;;;12.47;5.00;;;17.00;61.00;;;;;;4755115;30;20052;-88
2023/05/31 06:08:51;;;;;;;10.93;3.80;;;17.00;59.10;;;;;;4740918;30;20055;-87
2023/05/31 06:11:18;;;;;;;15.63;4.68;;;17.10;56.90;;;;;;4740952;30;20055;-87
2023/05/31 06:13:46;;;;;;;13.77;5.15;;;17.10;57.40;;;;;;4740954;30;20044;-87
2023/05/31 06:16:16;;;;;;;18.27;5.25;;;17.00;58.00;;;;;;4748677;30;20147;-87
2023/05/31 06:18:44;;;;;;;16.90;5.20;;;17.10;58.80;;;;;;4741050;30;20400;-87
2023/05/31 06:21:11;;;;;;;17.25;5.60;;;17.20;60.20;;;;;;4752314;30;20060;-87
2023/05/31 06:23:38;;;;;;;16.92;5.72;;;17.40;59.40;;;;;;4737693;30;20516;-87
2023/05/31 06:26:06;;;;;;;14.43;5.53;;;17.30;59.30;;;;;;4722862;30;20082;-87
2023/05/31 06:28:34;;;;;;;17.50;4.80;;;17.40;59.80;;;;;;4737764;30;20056;-87
2023/05/31 06:31:10;;;;;;;10.30;4.20;;;17.60;59.60;;;;;;4744848;30;20112;-87
2023/05/31 06:33:38;;;;;;;11.68;3.83;;;17.80;58.20;;;;;;4750957;30;20534;-88
2023/05/31 06:36:05;;;;;;;12.00;4.30;;;17.90;57.30;;;;;;4740533;30;20059;-87
2023/05/31 06:38:33;;;;;;;13.65;4.45;;;17.90;55.90;;;;;;4740151;30;20084;-87
2023/05/31 06:41:02;;;;;;;14.73;5.20;;;18.00;56.00;;;;;;4740607;30;20511;-88
2023/05/31 06:43:29;;;;;;;13.30;4.30;;;18.00;55.50;;;;;;4740447;30;20519;-87
2023/05/31 06:46:28;;;;;;;12.15;4.90;;;18.00;55.70;;;;;;4743690;30;20059;-87
2023/05/31 06:49:13;;;;;;;17.52;4.47;;;18.10;55.10;;;;;;4742724;30;20070;-88
2023/05/31 06:52:04;;;;;;;13.20;4.07;;;18.10;54.50;;;;;;4734836;30;20056;-87
2023/05/31 06:54:51;;;;;;;10.73;4.10;;;18.10;54.90;;;;;;4742886;30;20190;-88
2023/05/31 06:57:18;;;;;;;17.80;3.97;;;18.30;55.00;;;;;;4754561;30;20499;-86
2023/05/31 06:59:45;;;;;;;13.15;4.22;;;18.40;54.80;;;;;;4739338;30;20044;-85
2023/05/31 07:02:12;;;;;;;11.13;4.20;;;18.50;54.70;;;;;;4739774;30;20052;-86
2023/05/31 07:04:39;;;;;;;14.60;4.60;;;18.50;55.50;;;;;;4739861;30;20048;-87
2023/05/31 07:07:08;;;;;;;12.90;5.18;;;18.60;54.70;;;;;;4736872;30;20490;-85
2023/05/31 07:09:35;;;;;;;12.80;5.07;;;18.60;53.80;;;;;;4735416;30;20048;-86
2023/05/31 07:12:06;;;;;;;13.35;4.90;;;18.90;55.20;;;;;;4751460;30;20143;-90
2023/05/31 07:14:34;;;;;;;14.77;4.63;;;19.10;53.90;;;;;;4736806;30;20053;-91
2023/05/31 07:17:04;;;;;;;12.80;5.63;;;19.00;54.10;;;;;;4736329;30;20405;-91
2023/05/31 07:19:31;;;;;;;10.13;4.07;;;19.10;54.60;;;;;;4736677;30;20147;-90
2023/05/31 07:21:58;;;;;;;13.67;4.50;;;19.20;53.10;;;;;;4724989;30;20075;-90
2023/05/31 07:24:25;;;;;;;13.45;4.95;;;19.50;55.70;;;;;;4739798;30;20523;-90
2023/05/31 07:26:52;;;;;;;16.40;4.78;;;19.60;52.90;;;;;;4739786;30;20060;-92
2023/05/31 07:29:20;;;;;;;11.02;4.70;;;19.70;52.00;;;;;;4740135;30;20052;-91
2023/05/31 07:31:48;;;;;;;10.15;4.30;;;19.90;52.10;;;;;;4739701;30;20052;-90
2023/05/31 07:34:18;;;;;;;12.37;4.20;;;20.00;51.40;;;;;;4739842;30;20492;-89
2023/05/31 07:36:45;;;;;;;11.80;4.43;;;20.10;51.30;;;;;;4739261;30;20060;-89
2023/05/31 07:39:12;;;;;;;11.10;4.10;;;20.00;50.90;;;;;;4739597;30;20063;-90
2023/05/31 07:41:42;;;;;;;11.25;3.90;;;20.10;50.80;;;;;;4739568;30;20056;-91
2023/05/31 07:44:11;;;;;;;9.63;3.97;;;20.10;50.70;;;;;;4739441;30;20052;-90
2023/05/31 07:46:38;;;;;;;10.97;4.50;;;20.20;49.90;;;;;;4739429;30;20055;-91
2023/05/31 07:49:05;;;;;;;78.63;6.85;;;20.40;53.40;;;;;;4754014;30;20056;-90
2023/05/31 07:51:33;;;;;;;11.05;4.10;;;20.50;51.10;;;;;;4753993;30;20070;-91
2023/05/31 07:54:00;;;;;;;9.25;3.40;;;20.40;48.10;;;;;;4753664;30;20048;-90
2023/05/31 07:56:27;;;;;;;7.80;3.33;;;20.30;48.50;;;;;;4753428;30;20050;-91
2023/05/31 07:58:56;;;;;;;8.57;3.43;;;20.30;48.20;;;;;;4739011;30;20462;-90
2023/05/31 08:01:23;;;;;;;14.73;3.50;;;20.30;47.70;;;;;;4753574;30;20151;-92
2023/05/31 08:03:50;;;;;;;11.73;3.17;;;20.40;47.90;;;;;;4739358;30;20048;-91
2023/05/31 08:06:18;;;;;;;9.23;2.85;;;20.40;45.10;;;;;;4738746;30;20052;-91
2023/05/31 08:08:45;;;;;;;9.45;2.38;;;20.60;46.00;;;;;;4753462;30;20058;-90
2023/05/31 08:11:12;;;;;;;7.47;2.73;;;20.60;46.80;;;;;;4753968;30;20083;-91
2023/05/31 08:13:40;;;;;;;6.15;2.35;;;20.60;43.50;;;;;;4753289;30;20080;-90
2023/05/31 08:16:07;;;;;;;8.95;2.60;;;20.80;44.60;;;;;;4753421;30;20060;-90
2023/05/31 08:18:34;;;;;;;11.65;2.85;;;20.60;41.60;;;;;;4753558;30;20527;-90
2023/05/31 08:21:04;;;;;;;6.80;2.22;;;20.70;41.40;;;;;;4753130;30;20155;-91
2023/05/31 08:23:32;;;;;;;6.73;2.00;;;20.80;42.80;;;;;;4738332;30;20052;-91
2023/05/31 08:25:59;;;;;;;7.63;2.38;;;20.90;42.60;;;;;;4753089;30;20507;-89
2023/05/31 08:28:26;;;;;;;7.40;2.22;;;20.90;39.00;;;;;;4747125;30;20147;-90
2023/05/31 08:30:53;;;;;;;6.78;2.25;;;20.90;39.60;;;;;;4738664;30;20418;-91
2023/05/31 08:33:21;;;;;;;8.32;2.72;;;20.90;41.20;;;;;;4738960;30;20406;-90
2023/05/31 08:35:48;;;;;;;7.07;2.17;;;21.10;41.30;;;;;;4738800;30;20503;-90
2023/05/31 08:38:15;;;;;;;4.80;1.45;;;21.10;41.70;;;;;;4739531;30;20240;-89
2023/05/31 08:40:43;;;;;;;9.10;2.22;;;21.10;39.60;;;;;;4738520;30;20156;-90
2023/05/31 08:43:15;;;;;;;7.85;1.98;;;21.30;41.90;;;;;;4736372;30;20114;-87
2023/05/31 08:45:43;;;;;;;6.13;2.00;;;21.60;40.00;;;;;;4738330;30;20056;-90
2023/05/31 08:48:17;;;;;;;8.83;1.70;;;21.60;38.90;;;;;;4738782;30;20571;-90
2023/05/31 08:50:45;;;;;;;10.05;2.40;;;21.50;39.00;;;;;;4739943;30;20048;-91
2023/05/31 08:53:15;;;;;;;7.93;2.25;;;21.30;39.10;;;;;;4739136;30;20491;-90
2023/05/31 08:55:46;;;;;;;7.82;2.53;;;21.20;39.50;;;;;;4753517;30;20191;-91
2023/05/31 08:58:13;;;;;;;9.05;2.53;;;21.30;40.80;;;;;;4738703;30;20060;-91
2023/05/31 09:00:41;;;;;;;4.80;1.83;;;21.30;39.10;;;;;;4738457;30;20534;-90
2023/05/31 09:03:10;;;;;;;5.82;2.28;;;21.40;40.00;;;;;;4752601;30;20059;-90
2023/05/31 09:05:37;;;;;;;7.35;2.25;;;21.50;39.60;;;;;;4738321;30;20099;-91
2023/05/31 09:08:05;;;;;;;6.65;2.10;;;21.40;38.20;;;;;;4738177;30;20052;-91
2023/05/31 09:10:32;;;;;;;6.47;2.00;;;21.40;39.50;;;;;;4752790;30;20466;-90
2023/05/31 09:12:59;;;;;;;7.33;1.97;;;21.50;38.90;;;;;;4753158;30;20119;-90
2023/05/31 09:15:27;;;;;;;8.40;1.80;;;21.50;38.40;;;;;;4738040;30;20469;-90
2023/05/31 09:17:57;;;;;;;7.45;2.28;;;21.60;40.00;;;;;;4753013;30;20052;-90
2023/05/31 09:20:34;;;;;;;6.22;1.92;;;21.60;39.80;;;;;;4738150;30;20492;-88
2023/05/31 09:23:03;;;;;;;8.77;2.03;;;21.70;38.40;;;;;;4740090;30;20044;-87
2023/05/31 09:25:44;;;;;;;7.30;1.60;;;21.50;39.10;;;;;;4732896;30;20454;-88
2023/05/31 09:28:12;;;;;;;5.70;1.88;;;21.50;39.00;;;;;;4737118;30;20487;-88
2023/05/31 09:30:40;;;;;;;13.25;2.60;;;21.40;39.40;;;;;;4737498;30;20751;-88
2023/05/31 09:33:07;;;;;;;6.65;1.90;;;21.50;41.40;;;;;;4734648;30;20109;-88
2023/05/31 09:35:34;;;;;;;7.13;1.80;;;21.70;38.10;;;;;;4723849;30;20389;-87
2023/05/31 09:38:06;;;;;;;5.17;1.50;;;21.70;40.00;;;;;;4740778;30;20056;-87
2023/05/31 09:40:33;;;;;;;6.78;2.00;;;21.60;39.10;;;;;;4738158;30;20454;-88
2023/05/31 09:43:00;;;;;;;8.02;2.00;;;21.60;39.40;;;;;;4752229;30;20047;-88
2023/05/31 09:45:29;;;;;;;6.50;2.10;;;21.70;39.40;;;;;;4737539;30;20139;-88
2023/05/31 09:47:56;;;;;;;5.97;2.03;;;22.00;39.70;;;;;;4749282;30;20052;-87
2023/05/31 09:50:24;;;;;;;5.60;2.13;;;22.10;39.60;;;;;;4735555;30;20420;-88
2023/05/31 09:52:58;;;;;;;5.85;2.00;;;22.20;40.60;;;;;;4750044;30;20517;-89
2023/05/31 09:55:40;;;;;;;9.20;2.80;;;22.30;39.20;;;;;;4740788;30;20502;-88
2023/05/31 09:58:07;;;;;;;7.80;1.98;;;22.20;39.60;;;;;;4739320;30;20052;-89
2023/05/31 10:00:43;;;;;;;6.85;1.85;;;22.30;38.80;;;;;;4754684;30;20036;-89
2023/05/31 10:03:10;;;;;;;7.20;1.93;;;22.20;39.40;;;;;;4733958;30;20135;-88
2023/05/31 10:05:38;;;;;;;5.88;2.30;;;22.00;38.20;;;;;;4738846;30;20071;-87
2023/05/31 10:08:05;;;;;;;5.13;2.15;;;22.00;39.90;;;;;;4740091;30;20052;-88
2023/05/31 10:10:33;;;;;;;8.02;2.03;;;22.10;39.20;;;;;;4735018;30;20144;-88
2023/05/31 10:13:03;;;;;;;6.18;2.40;;;22.30;37.80;;;;;;4734173;30;20103;-88
2023/05/31 10:15:31;;;;;;;8.27;2.20;;;22.30;37.60;;;;;;4763336;30;20067;-89
2023/05/31 10:18:11;;;;;;;7.40;1.70;;;22.40;39.00;;;;;;4734360;30;20135;-88
2023/05/31 10:20:55;;;;;;;6.18;1.90;;;22.60;40.80;;;;;;4740933;30;20044;-90
2023/05/31 10:23:25;;;;;;;7.28;2.33;;;22.70;37.00;;;;;;4723825;30;20114;-89
2023/05/31 10:25:58;;;;;;;6.57;2.05;;;22.70;37.90;;;;;;4736558;30;20040;-89
2023/05/31 10:28:31;;;;;;;7.80;2.33;;;22.50;37.50;;;;;;4740676;30;20135;-90
2023/05/31 10:31:00;;;;;;;7.38;2.05;;;22.40;38.20;;;;;;4733506;30;20079;-89
2023/05/31 10:33:30;;;;;;;8.07;1.92;;;22.40;38.50;;;;;;4739147;30;20518;-89
2023/05/31 10:35:59;;;;;;;5.63;2.00;;;22.30;38.20;;;;;;4735181;30;20527;-88
2023/05/31 10:38:38;;;;;;;8.32;2.17;;;22.40;37.80;;;;;;4721311;30;20124;-88
2023/05/31 10:41:13;;;;;;;14.17;2.17;;;22.10;38.70;;;;;;4737671;30;20419;-88
2023/05/31 10:44:06;;;;;;;14.80;2.28;;;22.40;40.50;;;;;;4750177;30;20090;-88
2023/05/31 10:46:59;;;;;;;6.60;1.85;;;22.40;37.60;;;;;;4740178;30;20063;-88
2023/05/31 10:49:31;;;;;;;9.00;1.70;;;22.50;39.40;;;;;;4725474;30;20052;-88
2023/05/31 10:52:05;;;;;;;5.95;1.90;;;22.50;38.40;;;;;;4735788;30;20082;-88
2023/05/31 10:54:33;;;;;;;7.47;1.90;;;22.60;40.90;;;;;;4736263;30;20048;-88
2023/05/31 10:57:03;;;;;;;8.70;1.92;;;22.60;38.50;;;;;;4738260;30;20515;-88
2023/05/31 10:59:41;;;;;;;6.20;2.00;;;22.60;39.20;;;;;;4737087;30;20142;-89
2023/05/31 11:02:10;;;;;;;8.32;1.85;;;22.70;39.00;;;;;;4739602;30;20127;-89
2023/05/31 11:04:37;;;;;;;7.53;2.10;;;22.60;39.90;;;;;;4733694;30;20052;-89
2023/05/31 11:07:14;;;;;;;4.97;1.70;;;22.60;39.00;;;;;;4751050;30;20048;-90
2023/05/31 11:09:53;;;;;;;7.15;2.05;;;22.60;40.10;;;;;;4739570;30;20086;-90
2023/05/31 11:12:35;;;;;;;8.05;2.20;;;22.70;38.70;;;;;;4725563;30;20059;-90
2023/05/31 11:15:13;;;;;;;6.38;2.15;;;22.90;41.00;;;;;;4739268;30;20079;-88
2023/05/31 11:17:50;;;;;;;5.38;1.60;;;23.10;39.70;;;;;;4736292;30;20060;-88
2023/05/31 11:20:19;;;;;;;7.50;2.10;;;23.30;38.80;;;;;;4737867;30;20056;-88
2023/05/31 11:22:47;;;;;;;7.15;1.98;;;23.40;38.80;;;;;;4737444;30;20109;-88
2023/05/31 11:25:20;;;;;;;10.50;2.15;;;23.50;38.90;;;;;;4735171;30;20063;-87
2023/05/31 11:28:05;;;;;;;6.53;2.30;;;23.30;38.20;;;;;;4735188;30;20864;-91
2023/05/31 11:30:37;;;;;;;7.90;1.98;;;23.40;38.70;;;;;;4740219;30;20416;-92
2023/05/31 11:33:15;;;;;;;5.20;1.90;;;23.40;40.00;;;;;;4740098;30;20407;-91
2023/05/31 11:35:42;;;;;;;11.15;2.03;;;23.60;39.10;;;;;;4740739;30;20052;-92
2023/05/31 11:38:10;;;;;;;7.45;2.05;;;23.90;40.10;;;;;;4740111;30;20064;-92
2023/05/31 11:40:37;;;;;;;5.93;2.05;;;24.00;38.90;;;;;;4740165;30;20056;-91
2023/05/31 11:43:06;;;;;;;7.25;2.15;;;23.80;37.60;;;;;;4739941;30;20059;-93
2023/05/31 11:45:40;;;;;;;7.47;1.80;;;23.60;38.80;;;;;;4725641;30;20048;-92
2023/05/31 11:48:27;;;;;;;5.88;2.00;;;23.60;39.50;;;;;;4739817;30;20058;-92
2023/05/31 11:50:55;;;;;;;8.68;2.30;;;23.60;38.40;;;;;;4719176;30;20049;-92
2023/05/31 11:53:22;;;;;;;5.53;2.13;;;23.70;39.50;;;;;;4739748;30;20147;-91
2023/05/31 11:55:52;;;;;;;10.25;2.30;;;24.00;39.60;;;;;;4739527;30;20056;-92
2023/05/31 11:58:21;;;;;;;7.37;2.00;;;24.10;38.90;;;;;;4739235;30;20052;-92
2023/05/31 12:00:48;;;;;;;7.43;2.28;;;24.30;37.60;;;;;;4739614;30;20109;-92
2023/05/31 12:03:17;;;;;;;8.85;2.05;;;24.30;38.60;;;;;;4739364;30;20080;-92
2023/05/31 12:05:50;;;;;;;7.78;2.00;;;24.20;37.70;;;;;;4725114;30;20078;-91
2023/05/31 12:08:18;;;;;;;7.15;2.03;;;24.00;36.60;;;;;;4739501;30;20051;-92
2023/05/31 12:10:45;;;;;;;6.20;2.20;;;24.00;37.80;;;;;;4739466;30;20048;-92
2023/05/31 12:13:16;;;;;;;8.73;2.22;;;24.10;37.30;;;;;;4738953;30;20427;-91
2023/05/31 12:15:52;;;;;;;7.50;2.15;;;24.10;37.60;;;;;;4739509;30;20538;-92
2023/05/31 12:18:19;;;;;;;6.10;2.08;;;24.00;37.50;;;;;;4739618;30;20052;-92
2023/05/31 12:20:47;;;;;;;6.72;1.90;;;23.80;37.60;;;;;;4739565;30;20052;-91
2023/05/31 12:23:15;;;;;;;7.63;2.23;;;23.90;38.80;;;;;;4739486;30;20059;-92
2023/05/31 12:25:47;;;;;;;6.38;2.10;;;23.90;37.20;;;;;;4739532;30;20139;-92
2023/05/31 12:28:19;;;;;;;6.30;2.40;;;23.80;37.70;;;;;;4739049;30;20519;-92
2023/05/31 12:30:48;;;;;;;6.85;2.22;;;24.00;38.00;;;;;;4739278;30;20048;-92
2023/05/31 12:33:15;;;;;;;6.30;2.03;;;24.00;37.50;;;;;;4739406;30;20111;-92
2023/05/31 12:35:47;;;;;;;30.73;3.37;;;23.80;37.30;;;;;;4738950;30;20059;-92
2023/05/31 12:38:15;;;;;;;7.03;2.05;;;23.80;37.80;;;;;;4738987;30;20056;-92
2023/05/31 12:40:44;;;;;;;6.05;2.17;;;23.90;36.90;;;;;;4739045;30;20056;-91
2023/05/31 12:43:14;;;;;;;5.57;2.00;;;23.80;35.60;;;;;;4738880;30;20052;-92
2023/05/31 12:45:42;;;;;;;8.68;2.55;;;23.80;37.30;;;;;;4738516;30;20068;-92
2023/05/31 12:48:15;;;;;;;4.97;1.90;;;23.80;37.20;;;;;;4739170;30;20487;-92
2023/05/31 12:50:56;;;;;;;5.75;1.90;;;23.60;36.70;;;;;;4725152;30;20082;-92
2023/05/31 12:53:38;;;;;;;5.70;2.70;;;23.80;39.70;;;;;;4738690;30;20504;-92
2023/05/31 12:56:15;;;;;;;9.00;2.08;;;24.00;37.10;;;;;;4738756;30;20052;-91
2023/05/31 12:59:05;;;;;;;7.28;2.25;;;24.10;37.10;;;;;;4739426;30;20066;-91